Time;durP1;ratioP1;P1;durP2;ratioP2;P2;SDS_P1;SDS_P2;PMS_P1;PMS_P2;Temp;Humidity;BMP_temperature;BMP_pressure;BME280_temperature;BME280_humidity;BME280_pressure;Samples;Min_cycle;Max_cycle;Signal;HPM_P1;HPM_P2
2022/12/31 00:01:23;;;;;;;39.23;19.15;;;;;;;4.91;85.75;98895.93;1720514;83;21007;-38
2022/12/31 00:03:50;;;;;;;39.27;20.52;;;;;;;4.97;85.36;98877.90;1720625;83;20983;-40
2022/12/31 00:06:29;;;;;;;34.30;19.12;;;;;;;4.99;85.38;98882.59;1720625;83;21457;-39
2022/12/31 00:08:57;;;;;;;39.35;20.48;;;;;;;5.02;85.12;98881.19;1720567;83;21046;-41
2022/12/31 00:11:25;;;;;;;37.90;19.75;;;;;;;5.01;85.03;98878.17;1720502;83;20995;-41
2022/12/31 00:13:52;;;;;;;36.33;19.50;;;;;;;5.02;85.02;98876.40;1720495;83;21043;-39
2022/12/31 00:16:22;;;;;;;36.55;19.60;;;;;;;5.06;84.86;98871.45;1720687;83;21473;-40
2022/12/31 00:18:51;;;;;;;39.73;18.90;;;;;;;5.05;84.89;98872.37;1720622;83;21042;-39
2022/12/31 00:21:19;;;;;;;37.45;19.30;;;;;;;4.99;85.04;98867.80;1720599;83;21007;-41
2022/12/31 00:23:45;;;;;;;35.28;18.23;;;;;;;5.06;84.81;98862.33;1695887;85;20978;-42
2022/12/31 00:26:20;;;;;;;32.38;18.45;;;;;;;5.05;84.87;98874.98;1695719;84;20993;-41
2022/12/31 00:28:47;;;;;;;31.12;17.27;;;;;;;5.09;84.60;98863.06;1695797;85;21033;-39
2022/12/31 00:31:17;;;;;;;31.87;17.87;;;;;;;5.05;84.82;98856.28;1715306;83;20975;-39
2022/12/31 00:33:44;;;;;;;35.25;17.40;;;;;;;5.11;84.59;98863.00;1720613;83;21039;-41
2022/12/31 00:36:14;;;;;;;36.60;18.37;;;;;;;5.12;84.61;98874.67;1720893;83;21010;-40
2022/12/31 00:38:44;;;;;;;30.72;16.65;;;;;;;5.12;84.49;98869.92;1720526;82;21504;-40
2022/12/31 00:41:11;;;;;;;30.10;16.82;;;;;;;5.08;84.69;98867.90;1720680;83;20980;-40
2022/12/31 00:43:37;;;;;;;32.98;16.55;;;;;;;5.09;84.73;98866.13;1720770;83;21062;-39
2022/12/31 00:46:04;;;;;;;30.55;16.55;;;;;;;5.12;84.60;98872.07;1720520;83;20996;-41
2022/12/31 00:48:31;;;;;;;30.82;16.60;;;;;;;5.14;84.30;98865.03;1719312;83;21501;-38
2022/12/31 00:50:57;;;;;;;31.90;16.48;;;;;;;5.09;84.80;98876.55;1718472;83;21500;-38
2022/12/31 00:53:24;;;;;;;33.10;15.23;;;;;;;5.08;84.88;98874.41;1718210;83;21497;-39
2022/12/31 00:55:50;;;;;;;29.60;15.72;;;;;;;5.13;84.70;98870.30;1718483;83;21031;-40
2022/12/31 00:58:16;;;;;;;35.45;16.35;;;;;;;5.10;84.93;98875.66;1718281;83;21007;-38
2022/12/31 01:00:42;;;;;;;28.12;15.18;;;;;;;5.12;84.99;98863.41;1718376;83;20983;-39
2022/12/31 01:03:08;;;;;;;33.78;15.48;;;;;;;5.11;84.68;98851.28;1718383;83;21006;-40
2022/12/31 01:05:35;;;;;;;33.92;16.52;;;;;;;5.16;84.96;98863.67;1718370;82;21000;-39
2022/12/31 01:08:01;;;;;;;30.95;15.28;;;;;;;5.18;84.80;98857.94;1718466;83;21019;-38
2022/12/31 01:13:12;;;;;;;28.73;15.35;;;;;;;5.20;85.06;98862.63;1683071;85;21094;-40
2022/12/31 01:15:38;;;;;;;27.67;15.08;;;;;;;5.26;84.70;98849.84;1683333;84;21539;-40
2022/12/31 01:18:07;;;;;;;30.57;15.43;;;;;;;5.27;84.78;98856.27;1704442;83;21023;-40
2022/12/31 01:20:41;;;;;;;27.42;14.00;;;;;;;5.32;84.43;98841.75;1718417;83;21529;-40
2022/12/31 01:23:08;;;;;;;34.80;14.68;;;;;;;5.31;84.62;98855.25;1718459;83;21532;-40
2022/12/31 01:25:38;;;;;;;;;;;;;;;5.31;84.88;98846.56;1721001;83;21480;-39
2022/12/31 01:28:06;;;;;;;26.57;14.65;;;;;;;5.33;84.80;98849.52;1718376;83;20117;-38
2022/12/31 01:30:32;;;;;;;30.72;15.68;;;;;;;5.36;84.97;98853.28;1718494;83;21440;-40
2022/12/31 01:32:58;;;;;;;26.62;13.90;;;;;;;5.40;85.07;98844.88;1718380;83;21003;-39
2022/12/31 01:35:24;;;;;;;29.70;14.68;;;;;;;5.40;85.13;98846.17;1718380;83;21465;-41
2022/12/31 01:37:50;;;;;;;25.12;14.13;;;;;;;5.43;85.10;98838.70;1718644;82;21598;-40
2022/12/31 01:40:16;;;;;;;26.60;14.30;;;;;;;5.51;84.86;98840.52;1718370;83;21492;-41
2022/12/31 01:42:42;;;;;;;28.90;14.33;;;;;;;5.52;85.08;98839.16;1718398;83;21010;-41
2022/12/31 01:45:12;;;;;;;27.02;13.98;;;;;;;5.51;85.45;98832.70;1701778;84;21001;-39
2022/12/31 01:47:43;;;;;;;27.50;14.45;;;;;;;5.57;84.94;98829.84;1700950;83;21092;-40
2022/12/31 01:50:14;;;;;;;28.47;14.28;;;;;;;5.62;85.19;98830.94;1695051;83;20975;-39
2022/12/31 01:52:44;;;;;;;28.27;14.53;;;;;;;5.69;84.94;98825.85;1695303;83;21051;-40
2022/12/31 01:55:24;;;;;;;25.40;14.98;;;;;;;5.69;85.13;98826.69;1695901;84;20975;-40
2022/12/31 01:57:55;;;;;;;26.90;14.50;;;;;;;5.77;84.65;98818.09;1695748;83;21002;-39
2022/12/31 02:00:21;;;;;;;26.02;15.13;;;;;;;5.82;84.44;98810.08;1695968;83;21042;-40
2022/12/31 02:02:47;;;;;;;25.27;14.23;;;;;;;5.83;84.49;98809.15;1695943;84;21006;-40
2022/12/31 02:05:40;;;;;;;29.12;15.23;;;;;;;5.84;84.67;98815.20;1695902;83;20982;-40
2022/12/31 02:08:06;;;;;;;26.17;14.43;;;;;;;5.90;84.46;98804.52;1695649;84;21032;-41
2022/12/31 02:10:32;;;;;;;27.60;14.45;;;;;;;5.87;84.43;98805.48;1695903;83;21022;-40
2022/12/31 02:12:59;;;;;;;29.95;15.15;;;;;;;5.94;84.35;98804.30;1695838;84;21013;-41
2022/12/31 02:15:36;;;;;;;28.65;15.10;;;;;;;5.95;84.24;98809.09;1695944;84;21526;-41
2022/12/31 02:18:35;;;;;;;23.57;14.20;;;;;;;5.98;84.34;98813.34;1678613;84;21026;-40
2022/12/31 02:21:26;;;;;;;28.92;14.68;;;;;;;6.01;84.29;98816.66;1695752;83;20986;-40
2022/12/31 02:23:57;;;;;;;27.87;14.83;;;;;;;6.04;84.21;98831.33;1695873;84;20993;-40
2022/12/31 02:26:54;;;;;;;25.92;15.08;;;;;;;6.09;84.22;98828.06;1689905;84;20987;-41
2022/12/31 02:29:36;;;;;;;32.20;15.75;;;;;;;6.13;84.00;98833.53;1696024;84;21034;-42
2022/12/31 02:32:23;;;;;;;30.20;15.63;;;;;;;6.17;84.06;98827.72;1685624;83;21492;-42
2022/12/31 02:34:57;;;;;;;27.73;15.67;;;;;;;6.20;83.95;98820.59;1696080;84;21563;-41
2022/12/31 02:37:26;;;;;;;29.87;16.02;;;;;;;6.22;84.02;98816.61;1694996;84;21001;-42
2022/12/31 02:39:52;;;;;;;26.62;15.03;;;;;;;6.26;83.79;98812.97;1695869;84;20975;-40
2022/12/31 02:42:18;;;;;;;28.65;15.63;;;;;;;6.25;83.84;98794.29;1773863;78;21102;-41
2022/12/31 02:44:44;;;;;;;24.70;14.60;;;;;;;6.27;84.00;98793.29;1806746;79;20972;-39
2022/12/31 02:47:44;;;;;;;26.15;15.28;;;;;;;6.29;83.89;98788.00;1806661;79;20971;-39
2022/12/31 02:50:30;;;;;;;24.75;15.35;;;;;;;6.28;84.10;98801.99;1806357;79;20956;-41
2022/12/31 02:53:19;;;;;;;28.25;15.32;;;;;;;6.22;84.59;98799.64;1806740;79;21484;-40
2022/12/31 02:56:15;;;;;;;23.92;14.83;;;;;;;6.30;84.41;98794.94;1809393;79;21480;-39
2022/12/31 03:04:33;;;;;;;27.50;15.60;;;;;;;6.30;84.79;98794.94;1806656;79;20972;-40
2022/12/31 03:07:04;;;;;;;29.20;14.35;;;;;;;6.33;84.60;98798.25;1806657;79;20960;-40
2022/12/31 03:09:30;;;;;;;26.17;14.95;;;;;;;6.37;84.68;98796.34;1806614;79;21534;-41
2022/12/31 03:14:40;;;;;;;23.80;13.50;;;;;;;6.45;84.30;98810.35;1790059;80;21031;-41
2022/12/31 03:17:06;;;;;;;22.05;12.53;;;;;;;6.49;84.30;98816.69;1803583;79;21496;-40
2022/12/31 03:22:28;;;;;;;26.30;14.78;;;;;;;6.49;84.34;98830.18;1806730;79;20967;-40
2022/12/31 03:27:52;;;;;;;24.40;13.25;;;;;;;6.53;84.50;98824.76;1808485;79;20975;-39
2022/12/31 03:30:20;;;;;;;22.42;13.78;;;;;;;6.52;84.80;98837.42;1806825;79;21640;-39
2022/12/31 03:32:47;;;;;;;22.80;12.70;;;;;;;6.54;84.88;98844.72;1806620;79;21563;-40
2022/12/31 03:35:16;;;;;;;25.17;13.30;;;;;;;6.53;85.12;98844.34;1806848;79;21460;-40
2022/12/31 03:37:42;;;;;;;20.43;12.73;;;;;;;6.54;85.24;98841.27;1809113;79;21426;-39
2022/12/31 03:40:11;;;;;;;25.07;13.17;;;;;;;6.58;85.21;98836.28;1806863;79;20998;-40
2022/12/31 03:42:36;;;;;;;19.32;11.97;;;;;;;6.62;84.98;98844.83;1786781;79;21012;-40
2022/12/31 03:45:03;;;;;;;19.02;12.53;;;;;;;6.66;85.09;98843.80;1766166;81;20980;-41
2022/12/31 03:47:29;;;;;;;21.93;11.97;;;;;;;6.70;84.96;98843.56;1766123;81;21022;-40
2022/12/31 03:49:55;;;;;;;19.07;11.43;;;;;;;6.72;85.31;98839.58;1766026;81;21513;-41
2022/12/31 03:52:21;;;;;;;18.52;11.20;;;;;;;6.76;85.10;98852.04;1765943;81;21414;-41
2022/12/31 03:54:48;;;;;;;17.07;11.25;;;;;;;6.75;85.29;98845.97;1765697;81;21032;-40
2022/12/31 03:57:14;;;;;;;17.80;10.65;;;;;;;6.80;85.15;98854.89;1765933;81;20991;-40
2022/12/31 03:59:39;;;;;;;17.15;10.70;;;;;;;6.79;85.21;98849.30;1765974;81;21181;-40
2022/12/31 04:02:06;;;;;;;21.23;10.38;;;;;;;6.81;85.37;98848.29;1765942;81;20992;-40
2022/12/31 04:04:31;;;;;;;17.75;9.70;;;;;;;6.82;85.50;98847.81;1766042;81;20996;-40
2022/12/31 04:06:57;;;;;;;20.60;11.50;;;;;;;6.87;85.45;98857.60;1765972;81;20992;-40
2022/12/31 04:09:23;;;;;;;16.32;9.90;;;;;;;6.90;85.38;98876.60;1766006;81;21505;-39
2022/12/31 04:11:49;;;;;;;17.45;10.48;;;;;;;6.92;85.49;98859.55;1765879;81;20968;-41
2022/12/31 04:14:16;;;;;;;16.80;9.78;;;;;;;6.95;85.51;98866.38;1766051;81;21591;-41
2022/12/31 04:16:43;;;;;;;16.15;10.30;;;;;;;7.00;85.32;98863.94;1766002;81;20999;-40
2022/12/31 04:19:10;;;;;;;16.57;9.38;;;;;;;6.99;85.67;98860.95;1766314;81;20984;-39
2022/12/31 04:21:36;;;;;;;20.37;9.80;;;;;;;7.03;85.52;98862.96;1766238;81;20992;-40
2022/12/31 04:24:02;;;;;;;14.83;9.53;;;;;;;7.02;85.98;98869.97;1766200;81;20991;-39
2022/12/31 04:26:29;;;;;;;13.65;8.10;;;;;;;7.05;86.08;98861.12;1766189;81;21033;-40
2022/12/31 04:28:55;;;;;;;13.35;9.20;;;;;;;7.01;86.72;98863.50;1765953;81;21164;-40
2022/12/31 04:31:21;;;;;;;15.20;9.65;;;;;;;7.08;86.30;98869.66;1765942;81;20991;-40
2022/12/31 04:33:46;;;;;;;15.10;9.70;;;;;;;7.11;86.12;98864.73;1765988;81;20995;-40
2022/12/31 04:36:12;;;;;;;15.28;9.58;;;;;;;7.16;86.11;98867.14;1766154;81;20960;-40
2022/12/31 04:38:38;;;;;;;15.80;8.58;;;;;;;7.15;86.85;98879.81;1766211;81;21485;-40
2022/12/31 04:41:16;;;;;;;15.83;8.58;;;;;;;7.11;87.47;98877.37;1766173;81;21489;-40
2022/12/31 04:43:54;;;;;;;13.65;8.83;;;;;;;7.15;87.18;98881.13;1766066;79;21063;-40
2022/12/31 04:46:24;;;;;;;18.12;9.15;;;;;;;7.17;87.33;98877.53;1765948;81;21051;-40
2022/12/31 04:48:50;;;;;;;11.85;7.80;;;;;;;7.23;87.11;98881.62;1766116;81;21527;-41
2022/12/31 04:51:16;;;;;;;17.00;8.75;;;;;;;7.23;87.53;98882.45;1766023;81;20987;-40
2022/12/31 04:53:42;;;;;;;12.65;8.35;;;;;;;7.25;87.35;98880.61;1766204;81;20988;-39
2022/12/31 04:56:09;;;;;;;12.05;8.48;;;;;;;7.27;87.57;98881.37;1766265;81;21481;-40
2022/12/31 04:58:36;;;;;;;25.27;9.98;;;;;;;7.30;87.26;98879.94;1766501;81;20996;-40
2022/12/31 05:01:03;;;;;;;12.45;8.30;;;;;;;7.34;87.40;98885.86;1766257;81;20964;-42
2022/12/31 05:03:29;;;;;;;13.28;8.88;;;;;;;7.27;87.97;98879.23;1766463;81;21532;-39
2022/12/31 05:06:05;;;;;;;17.00;9.00;;;;;;;7.32;87.72;98876.41;1766358;81;21540;-41
2022/12/31 05:08:32;;;;;;;14.45;8.58;;;;;;;7.29;88.23;98878.70;1766127;81;20968;-40
2022/12/31 05:10:58;;;;;;;11.57;8.28;;;;;;;7.35;88.04;98871.01;1766277;81;21497;-39
2022/12/31 05:13:24;;;;;;;13.95;8.65;;;;;;;7.38;87.59;98870.86;1765840;81;21465;-40
2022/12/31 05:15:50;;;;;;;12.45;7.65;;;;;;;7.40;87.55;98862.48;1766128;81;21461;-39
2022/12/31 05:18:17;;;;;;;11.57;7.70;;;;;;;7.41;87.40;98851.11;1766182;81;20995;-40
2022/12/31 05:20:44;;;;;;;11.87;8.33;;;;;;;7.46;87.14;98855.19;1766335;81;20988;-41
2022/12/31 05:23:10;;;;;;;13.78;8.15;;;;;;;7.43;87.51;98856.63;1766269;81;20964;-41
2022/12/31 05:25:36;;;;;;;12.43;8.78;;;;;;;7.44;87.56;98857.47;1766109;81;21022;-40
2022/12/31 05:28:02;;;;;;;12.45;8.10;;;;;;;7.49;87.13;98851.55;1766075;81;21000;-41
2022/12/31 05:30:27;;;;;;;11.65;7.72;;;;;;;7.49;87.11;98859.41;1766047;81;20999;-40
2022/12/31 05:32:53;;;;;;;12.47;7.75;;;;;;;7.48;86.93;98860.34;1766228;81;21004;-39
2022/12/31 05:35:19;;;;;;;12.23;7.95;;;;;;;7.49;87.19;98864.64;1766021;81;21043;-40
2022/12/31 05:37:45;;;;;;;12.07;8.00;;;;;;;7.45;87.18;98863.11;1766235;81;21015;-40
2022/12/31 05:40:11;;;;;;;15.45;8.10;;;;;;;7.50;87.20;98875.03;1766067;81;21100;-41
2022/12/31 05:42:38;;;;;;;12.90;7.47;;;;;;;7.55;86.97;98873.95;1782710;78;20988;-40
2022/12/31 05:45:05;;;;;;;11.18;7.92;;;;;;;7.57;86.88;98875.59;1807049;79;21112;-39
2022/12/31 05:47:31;;;;;;;13.48;8.15;;;;;;;7.61;86.72;98867.95;1806819;79;21031;-39
2022/12/31 05:49:57;;;;;;;15.83;7.58;;;;;;;7.64;86.59;98873.05;1806666;79;21007;-40
2022/12/31 05:52:23;;;;;;;13.68;8.03;;;;;;;7.65;86.57;98871.27;1806692;79;21019;-42
2022/12/31 05:54:49;;;;;;;10.03;6.97;;;;;;;7.68;86.43;98877.20;1806782;79;21011;-42
2022/12/31 05:57:14;;;;;;;11.48;7.22;;;;;;;7.71;86.34;98877.97;1806783;79;20987;-39
2022/12/31 05:59:40;;;;;;;14.38;7.65;;;;;;;7.72;86.25;98874.44;1806758;79;20980;-40
2022/12/31 06:02:06;;;;;;;10.75;7.10;;;;;;;7.69;86.33;98880.66;1806721;79;20987;-41
2022/12/31 06:04:32;;;;;;;8.75;6.65;;;;;;;7.74;86.15;98879.13;1806739;79;20999;-42
2022/12/31 06:06:58;;;;;;;11.25;6.83;;;;;;;7.78;85.91;98889.35;1806750;79;21015;-41
2022/12/31 06:09:24;;;;;;;10.15;7.00;;;;;;;7.75;85.93;98880.81;1806215;79;21810;-41
2022/12/31 06:11:50;;;;;;;10.53;6.70;;;;;;;7.76;85.96;98890.37;1806758;79;20995;-40
2022/12/31 06:14:16;;;;;;;12.33;7.53;;;;;;;7.75;86.03;98890.84;1806911;79;21508;-39
2022/12/31 06:16:42;;;;;;;11.18;6.45;;;;;;;7.79;85.91;98891.06;1806705;79;21022;-41
2022/12/31 06:19:08;;;;;;;12.20;7.33;;;;;;;7.77;85.95;98889.45;1806695;79;21017;-41
2022/12/31 06:21:36;;;;;;;14.58;8.08;;;;;;;7.80;85.90;98895.83;1806732;79;20980;-42
2022/12/31 06:24:02;;;;;;;11.15;7.25;;;;;;;7.84;85.77;98902.59;1806739;79;20986;-40
2022/12/31 06:26:28;;;;;;;11.25;7.03;;;;;;;7.85;85.71;98907.75;1806812;79;21170;-40
2022/12/31 06:28:54;;;;;;;9.70;7.05;;;;;;;7.87;85.61;98920.77;1806740;79;21022;-39
2022/12/31 06:31:20;;;;;;;11.48;7.15;;;;;;;7.84;85.71;98906.08;1806767;79;20944;-39
2022/12/31 06:33:45;;;;;;;11.50;7.47;;;;;;;7.88;85.61;98905.47;1806813;79;21053;-41
2022/12/31 06:36:14;;;;;;;10.50;6.78;;;;;;;7.85;85.66;98897.75;1806798;79;21027;-40
2022/12/31 06:38:42;;;;;;;9.13;6.47;;;;;;;7.85;85.66;98897.75;1806723;79;21482;-39
2022/12/31 06:41:12;;;;;;;13.60;6.75;;;;;;;7.87;85.62;98898.05;1806728;79;21022;-40
2022/12/31 06:43:39;;;;;;;10.85;6.92;;;;;;;7.86;85.64;98891.14;1810731;79;21007;-41
2022/12/31 06:46:08;;;;;;;;;;;;;;;7.87;85.61;98893.28;1815440;79;20960;-40
2022/12/31 06:48:34;;;;;;;10.30;6.97;;;;;;;7.83;85.74;98898.30;1812957;79;20391;-39
2022/12/31 06:51:09;;;;;;;11.70;6.72;;;;;;;7.82;85.70;98889.61;1812646;79;21496;-40
2022/12/31 06:53:35;;;;;;;12.15;7.22;;;;;;;7.82;85.75;98886.98;1812218;79;20951;-40
2022/12/31 06:56:08;;;;;;;9.73;6.55;;;;;;;7.82;85.70;98892.22;1812721;79;21475;-41
2022/12/31 06:58:35;;;;;;;12.13;6.72;;;;;;;7.78;85.85;98909.45;1812588;79;21426;-41
2022/12/31 07:01:28;;;;;;;11.95;6.72;;;;;;;7.71;86.34;98908.06;1812799;79;21475;-40
2022/12/31 07:04:22;;;;;;;11.12;6.42;;;;;;;7.74;85.98;98913.16;1812688;79;20987;-41
2022/12/31 07:06:56;;;;;;;10.28;6.53;;;;;;;7.72;86.23;98911.08;1812684;79;21019;-41
2022/12/31 07:10:00;;;;;;;10.13;6.37;;;;;;;7.69;86.46;98923.84;1811706;79;21038;-39
2022/12/31 07:12:54;;;;;;;11.05;7.17;;;;;;;7.71;86.26;98918.53;1690786;79;20979;-39
2022/12/31 07:15:44;;;;;;;8.93;6.25;;;;;;;7.68;86.62;98916.45;1768605;79;21018;-39
2022/12/31 07:18:41;;;;;;;10.80;6.95;;;;;;;7.70;86.60;98930.78;1812702;79;21015;-41
2022/12/31 07:21:15;;;;;;;9.75;6.30;;;;;;;7.71;86.65;98922.46;1812797;79;20991;-41
2022/12/31 07:23:42;;;;;;;13.30;6.83;;;;;;;7.73;86.17;98907.09;1812606;79;21508;-41
2022/12/31 07:26:19;;;;;;;10.40;6.42;;;;;;;7.74;86.41;98905.30;1812776;79;21594;-41
2022/12/31 07:29:22;;;;;;;8.60;6.53;;;;;;;7.76;86.26;98911.30;1812844;79;20983;-40
2022/12/31 07:32:06;;;;;;;11.12;6.20;;;;;;;7.75;86.42;98913.52;1812242;79;21034;-39
2022/12/31 07:35:01;;;;;;;11.28;6.62;;;;;;;7.71;86.61;98900.21;1812726;79;21481;-40
2022/12/31 07:37:47;;;;;;;9.95;6.28;;;;;;;7.74;86.60;98919.70;1812748;79;21461;-40
2022/12/31 07:40:50;;;;;;;9.98;6.10;;;;;;;7.75;86.27;98922.25;1812758;79;21495;-40
2022/12/31 07:43:46;;;;;;;8.35;5.70;;;;;;;7.80;86.26;98939.02;1812209;79;21509;-39
2022/12/31 07:46:55;;;;;;;10.08;6.97;;;;;;;7.74;86.88;98949.80;1717349;79;21453;-39
2022/12/31 07:49:23;;;;;;;9.40;6.62;;;;;;;7.84;86.50;98961.49;1812642;79;21484;-40
2022/12/31 07:51:51;;;;;;;8.68;6.33;;;;;;;7.87;86.68;98958.73;1812587;79;21010;-40
2022/12/31 07:54:17;;;;;;;9.63;6.35;;;;;;;7.88;86.69;98966.52;1812799;79;20991;-40
2022/12/31 07:56:43;;;;;;;10.80;6.47;;;;;;;7.92;86.57;98963.28;1812556;79;21500;-41
2022/12/31 07:59:50;;;;;;;10.40;6.93;;;;;;;8.00;86.41;98961.12;1812943;79;20991;-40
2022/12/31 08:02:40;;;;;;;8.70;5.55;;;;;;;8.02;86.39;98951.44;1812747;79;21013;-40
2022/12/31 08:05:35;;;;;;;9.65;6.35;;;;;;;8.04;86.40;98939.55;1810969;79;20955;-41
2022/12/31 08:08:12;;;;;;;9.58;5.70;;;;;;;8.10;86.06;98941.04;1812014;79;20956;-41
2022/12/31 08:10:46;;;;;;;6.85;5.37;;;;;;;8.09;86.16;98946.72;1811149;79;21508;-42
2022/12/31 08:13:12;;;;;;;7.00;5.83;;;;;;;8.13;86.35;98939.11;1812276;79;20948;-39
2022/12/31 08:15:39;;;;;;;9.55;5.58;;;;;;;8.18;86.16;98950.65;1812553;79;20967;-41
2022/12/31 08:18:07;;;;;;;6.28;4.85;;;;;;;8.22;86.17;98949.56;1812732;78;21491;-39
2022/12/31 08:20:37;;;;;;;8.53;5.30;;;;;;;8.27;86.13;98939.70;1812746;79;20995;-41
2022/12/31 08:23:26;;;;;;;7.30;5.05;;;;;;;8.33;86.05;98944.64;1812270;79;20983;-41
2022/12/31 08:26:24;;;;;;;6.87;5.00;;;;;;;8.37;85.88;98925.20;1810471;79;20947;-42
2022/12/31 08:29:07;;;;;;;8.25;5.40;;;;;;;8.38;85.82;98924.73;1812270;79;21449;-40
2022/12/31 08:31:57;;;;;;;6.90;5.05;;;;;;;8.42;85.76;98941.58;1812583;79;21509;-41
2022/12/31 08:34:54;;;;;;;8.03;5.35;;;;;;;8.46;85.65;98934.40;1812020;79;20984;-42
2022/12/31 08:37:54;;;;;;;7.62;4.97;;;;;;;8.50;85.45;98925.44;1812642;79;20975;-41
2022/12/31 08:40:34;;;;;;;7.40;4.53;;;;;;;8.52;85.44;98936.69;1811605;79;21018;-41
2022/12/31 08:43:39;;;;;;;8.20;4.90;;;;;;;8.53;85.38;98925.30;1799472;79;21028;-41
2022/12/31 08:46:10;;;;;;;7.12;4.55;;;;;;;8.59;85.39;98927.58;1765733;81;21492;-40
2022/12/31 08:48:42;;;;;;;6.30;4.40;;;;;;;8.62;85.35;98929.17;1765274;81;20960;-40
2022/12/31 08:51:16;;;;;;;6.20;4.75;;;;;;;8.64;85.21;98941.73;1765846;81;21008;-41
2022/12/31 08:53:42;;;;;;;6.87;4.20;;;;;;;8.71;85.17;98947.50;1765700;81;20964;-40
2022/12/31 08:56:41;;;;;;;8.18;5.03;;;;;;;8.71;85.29;98947.50;1765864;81;21031;-40
2022/12/31 08:59:33;;;;;;;8.23;4.75;;;;;;;8.78;85.27;98937.91;1765827;81;20984;-41
2022/12/31 09:02:16;;;;;;;6.40;4.53;;;;;;;8.84;85.21;98941.53;1766054;81;20996;-41
2022/12/31 09:05:24;;;;;;;5.25;4.33;;;;;;;8.98;85.05;98949.11;1765435;81;21023;-40
2022/12/31 09:08:21;;;;;;;6.45;4.25;;;;;;;9.05;84.92;98941.77;1765908;81;20977;-41
2022/12/31 09:11:01;;;;;;;9.78;5.37;;;;;;;9.13;84.78;98948.30;1765995;81;20988;-41
2022/12/31 09:14:22;;;;;;;10.45;5.80;;;;;;;9.27;84.70;98953.23;1765557;81;20981;-40
2022/12/31 09:16:53;;;;;;;6.70;4.75;;;;;;;9.33;84.59;98958.13;1765743;81;21039;-41
2022/12/31 09:19:19;;;;;;;5.53;3.75;;;;;;;9.45;84.34;98962.70;1764232;81;20992;-40
2022/12/31 09:21:45;;;;;;;5.72;4.25;;;;;;;9.49;84.27;98960.28;1765994;81;21489;-40
2022/12/31 09:24:14;;;;;;;6.33;4.03;;;;;;;9.56;84.14;98975.23;1765982;81;21023;-41
2022/12/31 09:27:01;;;;;;;6.05;3.40;;;;;;;9.63;84.07;98963.92;1765518;81;21485;-40
2022/12/31 09:29:50;;;;;;;5.25;3.52;;;;;;;9.64;84.03;98961.22;1766205;81;21027;-40
2022/12/31 09:32:36;;;;;;;8.25;4.00;;;;;;;9.73;83.98;98948.00;1715501;83;21007;-41
2022/12/31 09:35:16;;;;;;;4.53;3.40;;;;;;;9.71;83.69;98936.27;1756838;81;21489;-40
2022/12/31 09:38:10;;;;;;;5.95;4.03;;;;;;;9.76;83.73;98910.60;1762762;81;20992;-41
2022/12/31 09:41:15;;;;;;;4.72;3.62;;;;;;;9.78;83.66;98926.27;1766040;81;21000;-40
2022/12/31 09:44:11;;;;;;;4.87;3.87;;;;;;;9.80;83.75;98920.46;1784802;79;21012;-40
2022/12/31 09:47:16;;;;;;;4.45;3.00;;;;;;;9.87;83.70;98902.09;1806892;79;21027;-40
2022/12/31 09:49:59;;;;;;;4.47;3.17;;;;;;;9.97;83.60;98903.27;1806726;79;21461;-40
2022/12/31 09:52:53;;;;;;;7.92;3.50;;;;;;;10.08;83.57;98913.61;1728906;79;21523;-40
2022/12/31 09:55:42;;;;;;;6.22;3.70;;;;;;;10.13;83.30;98918.09;1804693;79;21027;-40
2022/12/31 09:58:28;;;;;;;6.00;3.75;;;;;;;10.17;83.19;98917.84;1806269;79;21425;-40
2022/12/31 10:01:19;;;;;;;4.92;3.20;;;;;;;10.27;83.14;98927.33;1806513;79;20972;-40
2022/12/31 10:04:42;;;;;;;4.70;3.25;;;;;;;10.32;83.01;98918.73;1806731;79;20979;-40
2022/12/31 10:07:51;;;;;;;10.38;4.90;;;;;;;10.33;82.74;98905.98;1806785;79;20987;-41
2022/12/31 10:10:34;;;;;;;9.88;3.60;;;;;;;10.41;82.41;98902.05;1806643;79;21023;-40
2022/12/31 10:13:27;;;;;;;6.22;3.20;;;;;;;10.43;82.63;98896.22;1806709;79;21508;-40
2022/12/31 10:16:05;;;;;;;3.62;2.90;;;;;;;10.47;82.47;98902.49;1806715;79;21492;-41
2022/12/31 10:18:54;;;;;;;3.17;2.80;;;;;;;10.56;82.55;98892.72;1806804;79;20948;-40
2022/12/31 10:21:54;;;;;;;3.58;3.02;;;;;;;10.58;82.22;98886.06;1806402;79;21001;-40
2022/12/31 10:24:45;;;;;;;4.62;3.30;;;;;;;10.63;82.16;98887.94;1806443;79;21034;-40
2022/12/31 10:27:37;;;;;;;3.70;2.72;;;;;;;10.74;82.30;98894.69;1806697;79;21369;-41
2022/12/31 10:30:15;;;;;;;4.40;2.90;;;;;;;10.75;82.48;98887.19;1806544;79;20940;-40
2022/12/31 10:32:52;;;;;;;5.65;3.00;;;;;;;10.77;82.57;98893.67;1806646;79;21026;-41
2022/12/31 10:35:49;;;;;;;5.92;3.85;;;;;;;10.85;82.51;98898.45;1806625;79;21029;-40
2022/12/31 10:38:20;;;;;;;3.98;2.67;;;;;;;10.85;82.46;98913.75;1806853;79;21011;-40
2022/12/31 10:41:08;;;;;;;4.33;2.98;;;;;;;10.76;82.69;98904.64;1805619;79;20976;-40
2022/12/31 10:43:46;;;;;;;7.08;3.22;;;;;;;10.69;83.00;98878.34;1808426;79;20987;-41
2022/12/31 10:46:33;;;;;;;4.00;2.47;;;;;;;10.68;83.54;98880.62;1812742;79;20979;-40
2022/12/31 10:49:30;;;;;;;6.08;2.77;;;;;;;10.66;84.59;98883.82;1812047;79;21452;-40
2022/12/31 10:52:07;;;;;;;3.37;2.87;;;;;;;10.61;86.68;98885.88;1812636;78;21022;-41
2022/12/31 10:54:39;;;;;;;;;;;;;;;10.52;87.09;98879.40;1814390;79;20979;-41
2022/12/31 10:57:42;;;;;;;4.12;2.87;;;;;;;10.45;87.69;98877.25;1812708;79;20110;-40
2022/12/31 11:00:19;;;;;;;3.90;2.95;;;;;;;10.30;90.28;98879.01;1812519;79;21444;-41
2022/12/31 11:03:29;;;;;;;5.60;3.37;;;;;;;10.24;90.55;98868.41;1812812;79;21492;-41
2022/12/31 11:06:34;;;;;;;3.95;3.00;;;;;;;10.27;89.63;98853.73;1812580;79;21043;-40
2022/12/31 11:09:40;;;;;;;4.22;3.30;;;;;;;10.22;89.58;98850.55;1812601;79;20967;-41
2022/12/31 11:12:36;;;;;;;10.60;6.47;;;;;;;10.12;91.54;98842.86;1812808;79;21631;-40
2022/12/31 11:15:45;;;;;;;8.85;5.62;;;;;;;10.17;90.13;98844.75;1807652;79;21542;-41
2022/12/31 11:19:02;;;;;;;7.12;4.75;;;;;;;10.09;92.15;98836.47;1811998;79;20999;-40
2022/12/31 11:24:19;;;;;;;9.43;4.37;;;;;;;10.06;91.46;98820.44;1819061;79;22569;-40
2022/12/31 11:27:02;;;;;;;7.58;4.87;;;;;;;10.04;91.87;98826.70;1791725;80;20999;-41
2022/12/31 11:30:03;;;;;;;6.72;4.22;;;;;;;10.05;91.99;98836.28;1793028;80;21527;-41
2022/12/31 11:32:47;;;;;;;7.00;4.20;;;;;;;10.07;91.40;98838.34;1793045;80;21025;-40
2022/12/31 11:35:36;;;;;;;7.05;4.78;;;;;;;10.09;91.21;98828.59;1792417;80;21495;-40
2022/12/31 11:38:28;;;;;;;6.92;4.12;;;;;;;10.11;90.90;98828.02;1793091;80;21003;-41
2022/12/31 11:41:22;;;;;;;5.83;4.30;;;;;;;10.12;91.19;98833.66;1793022;80;20966;-41
2022/12/31 11:44:22;;;;;;;7.22;4.30;;;;;;;10.20;90.75;98827.45;1793008;80;21018;-39
2022/12/31 11:46:56;;;;;;;7.35;4.33;;;;;;;10.23;90.23;98829.08;1793147;80;20982;-41
2022/12/31 11:50:01;;;;;;;5.92;4.25;;;;;;;10.29;90.30;98832.14;1792926;80;20982;-40
2022/12/31 11:53:05;;;;;;;8.20;4.55;;;;;;;10.31;89.83;98821.09;1792531;80;20994;-41
2022/12/31 11:55:41;;;;;;;5.75;4.50;;;;;;;10.36;89.67;98835.28;1793070;80;21002;-41
2022/12/31 11:58:16;;;;;;;9.63;4.72;;;;;;;10.41;89.31;98836.33;1793197;80;20998;-41
2022/12/31 12:00:47;;;;;;;7.20;4.45;;;;;;;10.45;89.16;98844.39;1792332;80;21014;-40
2022/12/31 12:03:13;;;;;;;10.15;5.50;;;;;;;10.47;88.79;98842.52;1792294;80;21582;-40
2022/12/31 12:05:39;;;;;;;6.90;5.17;;;;;;;10.54;88.70;98834.62;1793034;80;21432;-40
2022/12/31 12:08:05;;;;;;;6.50;5.37;;;;;;;10.60;88.31;98832.91;1793095;80;20994;-40
2022/12/31 12:10:48;;;;;;;7.95;4.72;;;;;;;10.65;87.77;98830.84;1793066;80;21041;-40
2022/12/31 12:13:26;;;;;;;8.23;4.78;;;;;;;10.68;87.81;98825.88;1793024;80;20979;-40
2022/12/31 12:15:58;;;;;;;5.72;3.90;;;;;;;10.74;87.32;98817.11;1792994;80;21030;-41
2022/12/31 12:18:29;;;;;;;6.15;4.00;;;;;;;10.79;87.36;98821.22;1793234;80;20987;-40
2022/12/31 12:21:09;;;;;;;5.45;4.15;;;;;;;10.86;87.17;98815.94;1793039;80;21495;-39
2022/12/31 12:23:36;;;;;;;7.00;4.70;;;;;;;10.97;87.02;98812.17;1788554;80;21011;-40
2022/12/31 12:26:02;;;;;;;6.57;5.13;;;;;;;11.04;86.44;98812.60;1788029;80;20963;-40
2022/12/31 12:28:33;;;;;;;5.58;4.45;;;;;;;11.07;85.82;98788.25;1787734;80;20991;-39
2022/12/31 12:31:03;;;;;;;5.28;4.37;;;;;;;11.18;85.73;98798.55;1784524;80;21444;-40
2022/12/31 12:33:41;;;;;;;4.95;4.03;;;;;;;11.20;85.39;98795.34;1787259;80;21519;-40
2022/12/31 12:36:11;;;;;;;5.55;3.83;;;;;;;11.25;85.46;98782.73;1787183;80;20982;-39